sensor_id;sensor_type;location;lat;lon;timestamp;temperature;humidity
72650;SHT31;61467;50.674;4.618;2024-02-14T00:00:42;9.52;82.34
72650;SHT31;61467;50.674;4.618;2024-02-14T00:03:09;9.42;82.82
72650;SHT31;61467;50.674;4.618;2024-02-14T00:05:37;9.28;83.22
72650;SHT31;61467;50.674;4.618;2024-02-14T00:08:06;9.30;83.30
72650;SHT31;61467;50.674;4.618;2024-02-14T00:10:35;9.45;82.45
72650;SHT31;61467;50.674;4.618;2024-02-14T00:13:02;9.39;83.23
72650;SHT31;61467;50.674;4.618;2024-02-14T00:15:32;9.42;83.16
72650;SHT31;61467;50.674;4.618;2024-02-14T00:17:59;9.49;82.90
72650;SHT31;61467;50.674;4.618;2024-02-14T00:20:26;9.45;82.63
72650;SHT31;61467;50.674;4.618;2024-02-14T00:22:52;9.68;82.47
72650;SHT31;61467;50.674;4.618;2024-02-14T00:25:20;9.59;82.57
72650;SHT31;61467;50.674;4.618;2024-02-14T00:27:49;9.52;82.61
72650;SHT31;61467;50.674;4.618;2024-02-14T00:30:16;9.52;82.57
72650;SHT31;61467;50.674;4.618;2024-02-14T00:32:42;9.34;83.32
72650;SHT31;61467;50.674;4.618;2024-02-14T00:35:09;9.38;83.16
72650;SHT31;61467;50.674;4.618;2024-02-14T00:37:36;9.61;82.70
72650;SHT31;61467;50.674;4.618;2024-02-14T00:40:03;9.55;82.78
72650;SHT31;61467;50.674;4.618;2024-02-14T00:42:31;9.55;82.80
72650;SHT31;61467;50.674;4.618;2024-02-14T00:45:00;9.62;82.20
72650;SHT31;61467;50.674;4.618;2024-02-14T00:47:28;9.58;82.37
72650;SHT31;61467;50.674;4.618;2024-02-14T00:49:55;9.71;82.39
72650;SHT31;61467;50.674;4.618;2024-02-14T00:52:22;9.56;83.00
72650;SHT31;61467;50.674;4.618;2024-02-14T00:54:48;9.63;82.42
72650;SHT31;61467;50.674;4.618;2024-02-14T00:57:15;9.56;82.50
72650;SHT31;61467;50.674;4.618;2024-02-14T00:59:43;9.66;82.26
72650;SHT31;61467;50.674;4.618;2024-02-14T01:02:11;9.55;82.71
72650;SHT31;61467;50.674;4.618;2024-02-14T01:04:38;9.52;82.94
72650;SHT31;61467;50.674;4.618;2024-02-14T01:07:05;9.65;82.27
72650;SHT31;61467;50.674;4.618;2024-02-14T01:09:32;9.71;81.89
72650;SHT31;61467;50.674;4.618;2024-02-14T01:11:59;9.71;81.96
72650;SHT31;61467;50.674;4.618;2024-02-14T01:14:25;9.71;82.00
72650;SHT31;61467;50.674;4.618;2024-02-14T01:16:52;9.69;82.44
72650;SHT31;61467;50.674;4.618;2024-02-14T01:19:23;9.68;82.31
72650;SHT31;61467;50.674;4.618;2024-02-14T01:21:53;9.72;82.96
72650;SHT31;61467;50.674;4.618;2024-02-14T01:24:21;9.58;83.43
72650;SHT31;61467;50.674;4.618;2024-02-14T01:26:49;9.59;84.03
72650;SHT31;61467;50.674;4.618;2024-02-14T01:29:16;9.61;84.12
72650;SHT31;61467;50.674;4.618;2024-02-14T01:31:43;9.58;84.36
72650;SHT31;61467;50.674;4.618;2024-02-14T01:34:09;9.48;84.63
72650;SHT31;61467;50.674;4.618;2024-02-14T01:36:38;9.41;85.43
72650;SHT31;61467;50.674;4.618;2024-02-14T01:39:06;9.46;85.21
72650;SHT31;61467;50.674;4.618;2024-02-14T01:41:36;9.48;85.06
72650;SHT31;61467;50.674;4.618;2024-02-14T01:44:03;9.49;85.35
72650;SHT31;61467;50.674;4.618;2024-02-14T01:46:30;9.42;85.68
72650;SHT31;61467;50.674;4.618;2024-02-14T01:48:57;9.62;85.15
72650;SHT31;61467;50.674;4.618;2024-02-14T01:51:24;9.55;85.36
72650;SHT31;61467;50.674;4.618;2024-02-14T01:53:54;9.55;85.74
72650;SHT31;61467;50.674;4.618;2024-02-14T01:56:21;9.45;86.01
72650;SHT31;61467;50.674;4.618;2024-02-14T01:58:48;9.65;85.46
72650;SHT31;61467;50.674;4.618;2024-02-14T02:01:15;9.51;85.68
72650;SHT31;61467;50.674;4.618;2024-02-14T02:03:43;9.71;85.54
72650;SHT31;61467;50.674;4.618;2024-02-14T02:06:10;9.61;85.66
72650;SHT31;61467;50.674;4.618;2024-02-14T02:08:36;9.54;86.21
72650;SHT31;61467;50.674;4.618;2024-02-14T02:11:05;9.58;86.13
72650;SHT31;61467;50.674;4.618;2024-02-14T02:13:32;9.55;85.96
72650;SHT31;61467;50.674;4.618;2024-02-14T02:15:59;9.69;85.61
72650;SHT31;61467;50.674;4.618;2024-02-14T02:18:27;9.71;85.53
72650;SHT31;61467;50.674;4.618;2024-02-14T02:20:53;9.65;85.51
72650;SHT31;61467;50.674;4.618;2024-02-14T02:23:22;9.63;86.00
72650;SHT31;61467;50.674;4.618;2024-02-14T02:25:48;9.55;86.21
72650;SHT31;61467;50.674;4.618;2024-02-14T02:28:15;9.71;86.06
72650;SHT31;61467;50.674;4.618;2024-02-14T02:30:44;9.72;85.17
72650;SHT31;61467;50.674;4.618;2024-02-14T02:33:11;9.65;85.80
72650;SHT31;61467;50.674;4.618;2024-02-14T02:35:42;9.73;85.81
72650;SHT31;61467;50.674;4.618;2024-02-14T02:38:10;9.78;85.29
72650;SHT31;61467;50.674;4.618;2024-02-14T02:40:39;9.71;85.72
72650;SHT31;61467;50.674;4.618;2024-02-14T02:43:05;9.48;86.36
72650;SHT31;61467;50.674;4.618;2024-02-14T02:45:32;9.41;86.39
72650;SHT31;61467;50.674;4.618;2024-02-14T02:47:59;9.48;86.48
72650;SHT31;61467;50.674;4.618;2024-02-14T02:50:27;9.68;86.03
72650;SHT31;61467;50.674;4.618;2024-02-14T02:52:55;9.76;85.22
72650;SHT31;61467;50.674;4.618;2024-02-14T02:55:22;9.72;85.58
72650;SHT31;61467;50.674;4.618;2024-02-14T02:57:50;9.61;85.72
72650;SHT31;61467;50.674;4.618;2024-02-14T03:00:18;9.58;85.75
72650;SHT31;61467;50.674;4.618;2024-02-14T03:02:47;9.69;85.81
72650;SHT31;61467;50.674;4.618;2024-02-14T03:05:14;9.68;86.00
72650;SHT31;61467;50.674;4.618;2024-02-14T03:07:44;9.65;85.93
72650;SHT31;61467;50.674;4.618;2024-02-14T03:10:13;9.89;85.32
72650;SHT31;61467;50.674;4.618;2024-02-14T03:12:45;9.81;84.99
72650;SHT31;61467;50.674;4.618;2024-02-14T03:15:14;9.69;85.24
72650;SHT31;61467;50.674;4.618;2024-02-14T03:17:41;9.83;85.38
72650;SHT31;61467;50.674;4.618;2024-02-14T03:20:09;9.87;84.79
72650;SHT31;61467;50.674;4.618;2024-02-14T03:22:38;9.81;85.25
72650;SHT31;61467;50.674;4.618;2024-02-14T03:25:08;9.78;85.41
72650;SHT31;61467;50.674;4.618;2024-02-14T03:27:35;9.85;85.39
72650;SHT31;61467;50.674;4.618;2024-02-14T03:30:02;9.75;85.40
72650;SHT31;61467;50.674;4.618;2024-02-14T03:32:31;9.68;86.07
72650;SHT31;61467;50.674;4.618;2024-02-14T03:34:58;9.69;86.39
72650;SHT31;61467;50.674;4.618;2024-02-14T03:37:26;9.85;85.82
72650;SHT31;61467;50.674;4.618;2024-02-14T03:39:52;9.79;86.32
72650;SHT31;61467;50.674;4.618;2024-02-14T03:42:19;9.95;85.69
72650;SHT31;61467;50.674;4.618;2024-02-14T03:44:46;9.83;85.97
72650;SHT31;61467;50.674;4.618;2024-02-14T03:47:13;9.93;86.06
72650;SHT31;61467;50.674;4.618;2024-02-14T03:49:42;9.96;86.15
72650;SHT31;61467;50.674;4.618;2024-02-14T03:52:09;9.81;86.02
72650;SHT31;61467;50.674;4.618;2024-02-14T03:54:37;9.97;85.86
72650;SHT31;61467;50.674;4.618;2024-02-14T03:57:04;9.83;86.31
72650;SHT31;61467;50.674;4.618;2024-02-14T03:59:36;9.96;85.96
72650;SHT31;61467;50.674;4.618;2024-02-14T04:02:06;10.02;85.74
72650;SHT31;61467;50.674;4.618;2024-02-14T04:04:35;9.96;85.76
72650;SHT31;61467;50.674;4.618;2024-02-14T04:07:04;9.97;86.04
72650;SHT31;61467;50.674;4.618;2024-02-14T04:09:32;10.00;86.36
72650;SHT31;61467;50.674;4.618;2024-02-14T04:11:59;9.87;86.18
72650;SHT31;61467;50.674;4.618;2024-02-14T04:14:26;10.13;86.06
72650;SHT31;61467;50.674;4.618;2024-02-14T04:16:53;10.09;85.78
72650;SHT31;61467;50.674;4.618;2024-02-14T04:19:19;9.89;86.15
72650;SHT31;61467;50.674;4.618;2024-02-14T04:21:46;10.07;86.12
72650;SHT31;61467;50.674;4.618;2024-02-14T04:24:15;10.03;86.29
72650;SHT31;61467;50.674;4.618;2024-02-14T04:26:42;10.03;86.01
72650;SHT31;61467;50.674;4.618;2024-02-14T04:29:09;10.12;86.31
72650;SHT31;61467;50.674;4.618;2024-02-14T04:31:36;10.04;86.13
72650;SHT31;61467;50.674;4.618;2024-02-14T04:34:03;9.96;86.32
72650;SHT31;61467;50.674;4.618;2024-02-14T04:36:30;10.02;86.74
72650;SHT31;61467;50.674;4.618;2024-02-14T04:38:57;9.95;87.03
72650;SHT31;61467;50.674;4.618;2024-02-14T04:41:25;9.87;87.14
72650;SHT31;61467;50.674;4.618;2024-02-14T04:43:52;9.96;87.26
72650;SHT31;61467;50.674;4.618;2024-02-14T04:46:19;10.10;86.48
72650;SHT31;61467;50.674;4.618;2024-02-14T04:48:47;10.06;86.28
72650;SHT31;61467;50.674;4.618;2024-02-14T04:51:14;10.03;86.80
72650;SHT31;61467;50.674;4.618;2024-02-14T04:53:41;10.06;86.89
72650;SHT31;61467;50.674;4.618;2024-02-14T04:56:08;10.00;87.15
72650;SHT31;61467;50.674;4.618;2024-02-14T04:58:36;9.95;87.49
72650;SHT31;61467;50.674;4.618;2024-02-14T05:01:03;10.03;87.07
72650;SHT31;61467;50.674;4.618;2024-02-14T05:03:32;9.89;87.46
72650;SHT31;61467;50.674;4.618;2024-02-14T05:05:59;9.96;87.32
72650;SHT31;61467;50.674;4.618;2024-02-14T05:08:28;10.13;87.24
72650;SHT31;61467;50.674;4.618;2024-02-14T05:10:54;10.09;87.22
72650;SHT31;61467;50.674;4.618;2024-02-14T05:13:23;10.21;86.93
72650;SHT31;61467;50.674;4.618;2024-02-14T05:15:51;10.10;86.87
72650;SHT31;61467;50.674;4.618;2024-02-14T05:18:19;10.21;87.23
72650;SHT31;61467;50.674;4.618;2024-02-14T05:20:46;10.03;87.51
72650;SHT31;61467;50.674;4.618;2024-02-14T05:23:13;10.18;87.33
72650;SHT31;61467;50.674;4.618;2024-02-14T05:25:43;10.21;86.82
72650;SHT31;61467;50.674;4.618;2024-02-14T05:28:10;10.27;86.70
72650;SHT31;61467;50.674;4.618;2024-02-14T05:30:38;10.17;87.23
72650;SHT31;61467;50.674;4.618;2024-02-14T05:33:07;10.23;87.52
72650;SHT31;61467;50.674;4.618;2024-02-14T05:35:34;10.21;87.01
72650;SHT31;61467;50.674;4.618;2024-02-14T05:38:00;10.16;87.14
72650;SHT31;61467;50.674;4.618;2024-02-14T05:40:29;10.20;86.96
72650;SHT31;61467;50.674;4.618;2024-02-14T05:42:57;10.24;86.68
72650;SHT31;61467;50.674;4.618;2024-02-14T05:45:24;10.44;86.43
72650;SHT31;61467;50.674;4.618;2024-02-14T05:47:52;10.29;86.37
72650;SHT31;61467;50.674;4.618;2024-02-14T05:50:20;10.34;86.38
72650;SHT31;61467;50.674;4.618;2024-02-14T05:52:47;10.16;86.51
72650;SHT31;61467;50.674;4.618;2024-02-14T05:55:14;10.36;86.23
72650;SHT31;61467;50.674;4.618;2024-02-14T05:57:41;10.37;85.69
72650;SHT31;61467;50.674;4.618;2024-02-14T06:00:08;10.27;86.10
72650;SHT31;61467;50.674;4.618;2024-02-14T06:02:36;10.45;85.86
72650;SHT31;61467;50.674;4.618;2024-02-14T06:05:03;10.43;85.59
72650;SHT31;61467;50.674;4.618;2024-02-14T06:07:36;10.50;85.36
72650;SHT31;61467;50.674;4.618;2024-02-14T06:10:03;10.57;85.00
72650;SHT31;61467;50.674;4.618;2024-02-14T06:12:30;10.43;85.11
72650;SHT31;61467;50.674;4.618;2024-02-14T06:14:57;10.34;85.66
72650;SHT31;61467;50.674;4.618;2024-02-14T06:17:24;10.41;85.15
72650;SHT31;61467;50.674;4.618;2024-02-14T06:19:53;10.44;85.47
72650;SHT31;61467;50.674;4.618;2024-02-14T06:22:20;10.55;84.95
72650;SHT31;61467;50.674;4.618;2024-02-14T06:24:48;10.44;85.27
72650;SHT31;61467;50.674;4.618;2024-02-14T06:27:16;10.36;85.75
72650;SHT31;61467;50.674;4.618;2024-02-14T06:29:44;10.51;85.13
72650;SHT31;61467;50.674;4.618;2024-02-14T06:32:13;10.67;84.76
72650;SHT31;61467;50.674;4.618;2024-02-14T06:34:42;10.55;84.69
72650;SHT31;61467;50.674;4.618;2024-02-14T06:37:09;10.54;84.50
72650;SHT31;61467;50.674;4.618;2024-02-14T06:39:35;10.48;84.99
72650;SHT31;61467;50.674;4.618;2024-02-14T06:42:04;10.23;85.98
72650;SHT31;61467;50.674;4.618;2024-02-14T06:44:31;10.30;85.86
72650;SHT31;61467;50.674;4.618;2024-02-14T06:46:58;10.43;86.18
72650;SHT31;61467;50.674;4.618;2024-02-14T06:49:24;10.44;85.80
72650;SHT31;61467;50.674;4.618;2024-02-14T06:51:53;10.51;85.75
72650;SHT31;61467;50.674;4.618;2024-02-14T06:54:20;10.92;84.81
72650;SHT31;61467;50.674;4.618;2024-02-14T06:56:47;11.37;83.09
72650;SHT31;61467;50.674;4.618;2024-02-14T06:59:15;11.19;82.53
72650;SHT31;61467;50.674;4.618;2024-02-14T07:01:42;10.94;83.30
72650;SHT31;61467;50.674;4.618;2024-02-14T07:04:09;10.95;83.02
72650;SHT31;61467;50.674;4.618;2024-02-14T07:06:36;10.85;83.91
72650;SHT31;61467;50.674;4.618;2024-02-14T07:09:03;10.76;84.13
72650;SHT31;61467;50.674;4.618;2024-02-14T07:11:31;10.79;84.19
72650;SHT31;61467;50.674;4.618;2024-02-14T07:13:58;10.81;84.19
72650;SHT31;61467;50.674;4.618;2024-02-14T07:16:26;10.86;83.96
72650;SHT31;61467;50.674;4.618;2024-02-14T07:18:53;10.85;83.93
72650;SHT31;61467;50.674;4.618;2024-02-14T07:21:22;10.96;83.63
72650;SHT31;61467;50.674;4.618;2024-02-14T07:23:49;10.89;83.91
72650;SHT31;61467;50.674;4.618;2024-02-14T07:26:15;10.84;83.65
72650;SHT31;61467;50.674;4.618;2024-02-14T07:28:42;11.01;83.50
72650;SHT31;61467;50.674;4.618;2024-02-14T07:31:09;11.01;83.64
72650;SHT31;61467;50.674;4.618;2024-02-14T07:33:38;10.99;83.66
72650;SHT31;61467;50.674;4.618;2024-02-14T07:36:05;10.88;84.09
72650;SHT31;61467;50.674;4.618;2024-02-14T07:38:34;10.91;84.03
72650;SHT31;61467;50.674;4.618;2024-02-14T07:41:01;10.98;84.04
72650;SHT31;61467;50.674;4.618;2024-02-14T07:43:28;10.88;84.43
72650;SHT31;61467;50.674;4.618;2024-02-14T07:45:54;10.72;84.96
72650;SHT31;61467;50.674;4.618;2024-02-14T07:48:21;10.76;84.54
72650;SHT31;61467;50.674;4.618;2024-02-14T07:50:50;10.76;85.13
72650;SHT31;61467;50.674;4.618;2024-02-14T07:53:17;10.84;84.81
72650;SHT31;61467;50.674;4.618;2024-02-14T07:55:43;10.89;84.28
72650;SHT31;61467;50.674;4.618;2024-02-14T07:58:10;10.98;84.46
72650;SHT31;61467;50.674;4.618;2024-02-14T08:00:38;10.82;84.66
72650;SHT31;61467;50.674;4.618;2024-02-14T08:03:05;10.82;84.85
72650;SHT31;61467;50.674;4.618;2024-02-14T08:05:31;10.82;84.78
72650;SHT31;61467;50.674;4.618;2024-02-14T08:08:00;11.12;84.00
72650;SHT31;61467;50.674;4.618;2024-02-14T08:10:27;10.98;84.24
72650;SHT31;61467;50.674;4.618;2024-02-14T08:12:54;10.81;84.99
72650;SHT31;61467;50.674;4.618;2024-02-14T08:15:20;10.91;85.27
72650;SHT31;61467;50.674;4.618;2024-02-14T08:17:47;10.96;85.40
72650;SHT31;61467;50.674;4.618;2024-02-14T08:20:14;10.95;85.14
72650;SHT31;61467;50.674;4.618;2024-02-14T08:22:41;11.02;84.91
72650;SHT31;61467;50.674;4.618;2024-02-14T08:25:09;11.06;85.24
72650;SHT31;61467;50.674;4.618;2024-02-14T08:27:37;11.15;84.87
72650;SHT31;61467;50.674;4.618;2024-02-14T08:30:05;11.25;84.74
72650;SHT31;61467;50.674;4.618;2024-02-14T08:32:34;11.29;84.80
72650;SHT31;61467;50.674;4.618;2024-02-14T08:35:02;11.27;84.99
72650;SHT31;61467;50.674;4.618;2024-02-14T08:37:29;11.26;84.99
72650;SHT31;61467;50.674;4.618;2024-02-14T08:39:56;11.57;84.07
72650;SHT31;61467;50.674;4.618;2024-02-14T08:42:25;11.54;84.36
72650;SHT31;61467;50.674;4.618;2024-02-14T08:44:51;11.43;84.70
72650;SHT31;61467;50.674;4.618;2024-02-14T08:47:19;11.53;84.70
72650;SHT31;61467;50.674;4.618;2024-02-14T08:49:46;11.69;83.81
72650;SHT31;61467;50.674;4.618;2024-02-14T08:52:13;11.71;84.16
72650;SHT31;61467;50.674;4.618;2024-02-14T08:54:40;11.78;83.61
72650;SHT31;61467;50.674;4.618;2024-02-14T08:57:07;11.67;83.95
72650;SHT31;61467;50.674;4.618;2024-02-14T08:59:35;11.66;84.00
72650;SHT31;61467;50.674;4.618;2024-02-14T09:02:02;11.57;84.69
72650;SHT31;61467;50.674;4.618;2024-02-14T09:04:29;11.47;85.18
72650;SHT31;61467;50.674;4.618;2024-02-14T09:06:56;11.49;84.79
72650;SHT31;61467;50.674;4.618;2024-02-14T09:09:23;11.50;84.80
72650;SHT31;61467;50.674;4.618;2024-02-14T09:11:50;11.47;84.89
72650;SHT31;61467;50.674;4.618;2024-02-14T09:14:17;11.69;84.48
72650;SHT31;61467;50.674;4.618;2024-02-14T09:16:45;11.81;83.78
72650;SHT31;61467;50.674;4.618;2024-02-14T09:19:12;11.88;83.53
72650;SHT31;61467;50.674;4.618;2024-02-14T09:21:39;11.74;83.55
72650;SHT31;61467;50.674;4.618;2024-02-14T09:24:06;11.74;83.92
72650;SHT31;61467;50.674;4.618;2024-02-14T09:26:33;11.80;83.85
72650;SHT31;61467;50.674;4.618;2024-02-14T09:29:01;11.77;83.72
72650;SHT31;61467;50.674;4.618;2024-02-14T09:31:28;11.67;84.20
72650;SHT31;61467;50.674;4.618;2024-02-14T09:33:57;11.53;84.91
72650;SHT31;61467;50.674;4.618;2024-02-14T09:36:26;11.60;84.96
72650;SHT31;61467;50.674;4.618;2024-02-14T09:38:54;11.47;85.10
72650;SHT31;61467;50.674;4.618;2024-02-14T09:41:25;11.59;84.99
72650;SHT31;61467;50.674;4.618;2024-02-14T09:43:52;11.30;85.72
72650;SHT31;61467;50.674;4.618;2024-02-14T09:46:23;11.43;85.86
72650;SHT31;61467;50.674;4.618;2024-02-14T09:48:53;11.39;85.50
72650;SHT31;61467;50.674;4.618;2024-02-14T09:51:24;11.40;85.94
72650;SHT31;61467;50.674;4.618;2024-02-14T09:53:54;11.27;86.68
72650;SHT31;61467;50.674;4.618;2024-02-14T09:56:21;11.47;86.12
72650;SHT31;61467;50.674;4.618;2024-02-14T09:58:49;11.34;86.56
72650;SHT31;61467;50.674;4.618;2024-02-14T10:01:21;11.27;87.19
72650;SHT31;61467;50.674;4.618;2024-02-14T10:03:49;11.32;86.89
72650;SHT31;61467;50.674;4.618;2024-02-14T10:06:17;11.43;86.74
72650;SHT31;61467;50.674;4.618;2024-02-14T10:08:49;11.44;86.85
72650;SHT31;61467;50.674;4.618;2024-02-14T10:11:17;11.33;87.28
72650;SHT31;61467;50.674;4.618;2024-02-14T10:13:46;11.43;87.36
72650;SHT31;61467;50.674;4.618;2024-02-14T10:16:15;11.50;87.20
72650;SHT31;61467;50.674;4.618;2024-02-14T10:18:44;11.44;87.59
72650;SHT31;61467;50.674;4.618;2024-02-14T10:21:14;11.36;87.93
72650;SHT31;61467;50.674;4.618;2024-02-14T10:23:42;11.34;88.06
72650;SHT31;61467;50.674;4.618;2024-02-14T10:26:12;11.47;88.32
72650;SHT31;61467;50.674;4.618;2024-02-14T10:28:41;11.43;88.08
72650;SHT31;61467;50.674;4.618;2024-02-14T10:31:10;11.47;88.05
72650;SHT31;61467;50.674;4.618;2024-02-14T10:33:36;11.49;88.11
72650;SHT31;61467;50.674;4.618;2024-02-14T10:36:07;11.53;87.27
72650;SHT31;61467;50.674;4.618;2024-02-14T10:38:34;11.60;87.62
72650;SHT31;61467;50.674;4.618;2024-02-14T10:41:01;11.59;87.63
72650;SHT31;61467;50.674;4.618;2024-02-14T10:43:30;11.63;87.80
72650;SHT31;61467;50.674;4.618;2024-02-14T10:46:00;11.40;88.39
72650;SHT31;61467;50.674;4.618;2024-02-14T10:48:33;11.56;87.94
72650;SHT31;61467;50.674;4.618;2024-02-14T10:51:02;11.60;88.17
72650;SHT31;61467;50.674;4.618;2024-02-14T10:53:32;11.56;88.17
72650;SHT31;61467;50.674;4.618;2024-02-14T10:56:00;11.50;88.26
72650;SHT31;61467;50.674;4.618;2024-02-14T10:58:30;11.39;88.82
72650;SHT31;61467;50.674;4.618;2024-02-14T11:00:58;11.53;88.90
72650;SHT31;61467;50.674;4.618;2024-02-14T11:03:25;11.52;88.71
72650;SHT31;61467;50.674;4.618;2024-02-14T11:05:54;11.60;88.31
72650;SHT31;61467;50.674;4.618;2024-02-14T11:08:29;11.71;88.39
72650;SHT31;61467;50.674;4.618;2024-02-14T11:10:59;11.43;88.67
72650;SHT31;61467;50.674;4.618;2024-02-14T11:13:27;11.59;88.55
72650;SHT31;61467;50.674;4.618;2024-02-14T11:16:00;11.56;88.72
72650;SHT31;61467;50.674;4.618;2024-02-14T11:18:28;11.62;88.81
72650;SHT31;61467;50.674;4.618;2024-02-14T11:20:56;11.62;88.77
72650;SHT31;61467;50.674;4.618;2024-02-14T11:23:23;11.64;88.49
72650;SHT31;61467;50.674;4.618;2024-02-14T11:25:59;11.75;88.83
72650;SHT31;61467;50.674;4.618;2024-02-14T11:28:28;11.66;88.53
72650;SHT31;61467;50.674;4.618;2024-02-14T11:31:00;11.59;88.85
72650;SHT31;61467;50.674;4.618;2024-02-14T11:33:29;11.63;88.97
72650;SHT31;61467;50.674;4.618;2024-02-14T11:35:56;11.64;89.29
72650;SHT31;61467;50.674;4.618;2024-02-14T11:38:24;11.66;89.19
72650;SHT31;61467;50.674;4.618;2024-02-14T11:40:54;11.70;89.36
72650;SHT31;61467;50.674;4.618;2024-02-14T11:43:22;11.71;89.50
72650;SHT31;61467;50.674;4.618;2024-02-14T11:45:51;11.71;89.33
72650;SHT31;61467;50.674;4.618;2024-02-14T11:48:20;11.90;89.08
72650;SHT31;61467;50.674;4.618;2024-02-14T11:50:48;11.98;88.46
72650;SHT31;61467;50.674;4.618;2024-02-14T11:53:17;11.95;88.27
72650;SHT31;61467;50.674;4.618;2024-02-14T11:55:45;11.87;88.52
72650;SHT31;61467;50.674;4.618;2024-02-14T11:58:14;11.80;89.09
72650;SHT31;61467;50.674;4.618;2024-02-14T12:00:42;11.84;89.23
72650;SHT31;61467;50.674;4.618;2024-02-14T12:03:17;12.01;89.06
72650;SHT31;61467;50.674;4.618;2024-02-14T12:05:46;11.93;88.70
72650;SHT31;61467;50.674;4.618;2024-02-14T12:08:18;11.83;89.06
72650;SHT31;61467;50.674;4.618;2024-02-14T12:10:46;11.97;89.11
72650;SHT31;61467;50.674;4.618;2024-02-14T12:13:16;11.93;89.13
72650;SHT31;61467;50.674;4.618;2024-02-14T12:15:45;11.95;89.06
72650;SHT31;61467;50.674;4.618;2024-02-14T12:18:12;11.91;89.16
72650;SHT31;61467;50.674;4.618;2024-02-14T12:20:39;11.84;89.37
72650;SHT31;61467;50.674;4.618;2024-02-14T12:23:08;11.80;89.70
72650;SHT31;61467;50.674;4.618;2024-02-14T12:25:40;11.87;89.82
72650;SHT31;61467;50.674;4.618;2024-02-14T12:28:13;11.88;90.05
72650;SHT31;61467;50.674;4.618;2024-02-14T12:30:44;12.06;89.63
72650;SHT31;61467;50.674;4.618;2024-02-14T12:33:12;12.20;89.28
72650;SHT31;61467;50.674;4.618;2024-02-14T12:35:42;12.18;88.95
72650;SHT31;61467;50.674;4.618;2024-02-14T12:38:11;12.10;89.08
72650;SHT31;61467;50.674;4.618;2024-02-14T12:40:39;12.08;88.72
72650;SHT31;61467;50.674;4.618;2024-02-14T12:43:07;12.08;88.81
72650;SHT31;61467;50.674;4.618;2024-02-14T12:45:36;12.17;88.70
72650;SHT31;61467;50.674;4.618;2024-02-14T12:48:02;12.24;88.18
72650;SHT31;61467;50.674;4.618;2024-02-14T12:50:30;12.32;88.46
72650;SHT31;61467;50.674;4.618;2024-02-14T12:52:58;12.24;88.47
72650;SHT31;61467;50.674;4.618;2024-02-14T12:55:26;12.22;88.65
72650;SHT31;61467;50.674;4.618;2024-02-14T12:57:54;12.14;88.85
72650;SHT31;61467;50.674;4.618;2024-02-14T13:00:21;12.22;88.61
72650;SHT31;61467;50.674;4.618;2024-02-14T13:02:48;12.28;88.55
72650;SHT31;61467;50.674;4.618;2024-02-14T13:05:15;12.25;88.55
72650;SHT31;61467;50.674;4.618;2024-02-14T13:07:42;12.31;88.68
72650;SHT31;61467;50.674;4.618;2024-02-14T13:10:09;12.25;89.14
72650;SHT31;61467;50.674;4.618;2024-02-14T13:12:38;12.21;89.02
72650;SHT31;61467;50.674;4.618;2024-02-14T13:15:06;12.14;89.29
72650;SHT31;61467;50.674;4.618;2024-02-14T13:17:33;12.34;89.26
72650;SHT31;61467;50.674;4.618;2024-02-14T13:19:59;12.24;89.28
72650;SHT31;61467;50.674;4.618;2024-02-14T13:22:26;12.31;89.31
72650;SHT31;61467;50.674;4.618;2024-02-14T13:24:53;12.21;89.46
72650;SHT31;61467;50.674;4.618;2024-02-14T13:27:21;12.24;89.68
72650;SHT31;61467;50.674;4.618;2024-02-14T13:29:50;12.22;89.73
72650;SHT31;61467;50.674;4.618;2024-02-14T13:32:16;12.34;89.43
72650;SHT31;61467;50.674;4.618;2024-02-14T13:34:43;12.26;89.33
72650;SHT31;61467;50.674;4.618;2024-02-14T13:37:10;12.21;89.56
72650;SHT31;61467;50.674;4.618;2024-02-14T13:39:37;12.34;89.52
72650;SHT31;61467;50.674;4.618;2024-02-14T13:42:04;12.28;89.33
72650;SHT31;61467;50.674;4.618;2024-02-14T13:44:33;12.38;89.17
72650;SHT31;61467;50.674;4.618;2024-02-14T13:47:01;12.29;89.32
72650;SHT31;61467;50.674;4.618;2024-02-14T13:49:30;12.26;89.50
72650;SHT31;61467;50.674;4.618;2024-02-14T13:51:57;12.24;89.75
72650;SHT31;61467;50.674;4.618;2024-02-14T13:54:24;12.15;90.12
72650;SHT31;61467;50.674;4.618;2024-02-14T13:56:51;12.21;90.20
72650;SHT31;61467;50.674;4.618;2024-02-14T13:59:18;12.25;89.92
72650;SHT31;61467;50.674;4.618;2024-02-14T14:01:46;12.29;89.78
72650;SHT31;61467;50.674;4.618;2024-02-14T14:04:14;12.35;89.69
72650;SHT31;61467;50.674;4.618;2024-02-14T14:06:41;12.38;89.30
72650;SHT31;61467;50.674;4.618;2024-02-14T14:09:08;12.38;89.41
72650;SHT31;61467;50.674;4.618;2024-02-14T14:11:36;12.42;89.47
72650;SHT31;61467;50.674;4.618;2024-02-14T14:14:03;12.35;89.55
72650;SHT31;61467;50.674;4.618;2024-02-14T14:16:29;12.43;89.54
72650;SHT31;61467;50.674;4.618;2024-02-14T14:18:58;12.36;89.33
72650;SHT31;61467;50.674;4.618;2024-02-14T14:21:27;12.49;88.92
72650;SHT31;61467;50.674;4.618;2024-02-14T14:23:54;12.62;88.93
72650;SHT31;61467;50.674;4.618;2024-02-14T14:26:20;12.55;88.73
72650;SHT31;61467;50.674;4.618;2024-02-14T14:28:47;12.52;89.32
72650;SHT31;61467;50.674;4.618;2024-02-14T14:31:14;12.49;89.32
72650;SHT31;61467;50.674;4.618;2024-02-14T14:33:41;12.59;89.02
72650;SHT31;61467;50.674;4.618;2024-02-14T14:36:08;12.66;88.76
72650;SHT31;61467;50.674;4.618;2024-02-14T14:38:37;12.55;89.19
72650;SHT31;61467;50.674;4.618;2024-02-14T14:41:06;12.59;88.85
72650;SHT31;61467;50.674;4.618;2024-02-14T14:43:33;12.53;88.69
72650;SHT31;61467;50.674;4.618;2024-02-14T14:46:00;12.69;88.74
72650;SHT31;61467;50.674;4.618;2024-02-14T14:48:27;12.55;89.06
72650;SHT31;61467;50.674;4.618;2024-02-14T14:50:53;12.75;88.88
72650;SHT31;61467;50.674;4.618;2024-02-14T14:53:20;12.57;88.76
72650;SHT31;61467;50.674;4.618;2024-02-14T14:55:54;12.59;89.15
72650;SHT31;61467;50.674;4.618;2024-02-14T14:58:23;12.72;88.62
72650;SHT31;61467;50.674;4.618;2024-02-14T15:00:53;12.60;89.15
72650;SHT31;61467;50.674;4.618;2024-02-14T15:03:21;12.55;89.24
72650;SHT31;61467;50.674;4.618;2024-02-14T15:05:48;12.60;89.40
72650;SHT31;61467;50.674;4.618;2024-02-14T15:08:15;12.69;89.39
72650;SHT31;61467;50.674;4.618;2024-02-14T15:10:43;12.56;89.26
72650;SHT31;61467;50.674;4.618;2024-02-14T15:13:11;12.69;89.35
72650;SHT31;61467;50.674;4.618;2024-02-14T15:15:38;12.69;89.06
72650;SHT31;61467;50.674;4.618;2024-02-14T15:18:08;12.76;88.58
72650;SHT31;61467;50.674;4.618;2024-02-14T15:20:35;12.66;88.75
72650;SHT31;61467;50.674;4.618;2024-02-14T15:23:03;12.77;88.88
72650;SHT31;61467;50.674;4.618;2024-02-14T15:25:32;12.76;88.58
72650;SHT31;61467;50.674;4.618;2024-02-14T15:27:59;12.92;88.11
72650;SHT31;61467;50.674;4.618;2024-02-14T15:30:36;13.00;87.74
72650;SHT31;61467;50.674;4.618;2024-02-14T15:33:20;12.84;88.04
72650;SHT31;61467;50.674;4.618;2024-02-14T15:35:49;12.73;88.34
72650;SHT31;61467;50.674;4.618;2024-02-14T15:38:17;12.77;88.28